createdAt,value
2018-08-19T00:00:22.209Z,22.20
2018-08-19T00:02:52.829Z,21.03
2018-08-19T00:05:20.776Z,20.43
2018-08-19T00:07:48.996Z,22.10
2018-08-19T00:10:18.914Z,23.47
2018-08-19T00:12:47.689Z,23.30
2018-08-19T00:15:16.058Z,19.63
2018-08-19T00:17:44.273Z,23.00
2018-08-19T00:20:12.744Z,21.10
2018-08-19T00:22:40.750Z,19.50
2018-08-19T00:25:09.884Z,21.17
2018-08-19T00:27:38.607Z,21.67
2018-08-19T00:30:07.469Z,19.60
2018-08-19T00:32:35.337Z,23.87
2018-08-19T00:35:04.045Z,21.47
2018-08-19T00:37:31.891Z,19.37
2018-08-19T00:40:05.150Z,24.63
2018-08-19T00:42:33.119Z,25.03
2018-08-19T00:45:01.962Z,20.60
2018-08-19T00:47:30.854Z,25.67
2018-08-19T00:50:02.362Z,22.67
2018-08-19T00:52:30.330Z,24.00
2018-08-19T00:54:58.305Z,20.40
2018-08-19T00:57:26.257Z,20.40
2018-08-19T00:59:54.225Z,24.60
2018-08-19T01:02:22.152Z,23.23
2018-08-19T01:04:50.292Z,20.40
2018-08-19T01:07:19.173Z,22.83
2018-08-19T01:09:48.158Z,21.27
2018-08-19T01:12:16.097Z,19.73
2018-08-19T01:14:44.002Z,22.00
2018-08-19T01:17:11.926Z,23.53
2018-08-19T01:19:39.863Z,20.93
2018-08-19T01:22:07.725Z,21.43
2018-08-19T01:24:35.753Z,23.43
2018-08-19T01:27:03.741Z,21.23
2018-08-19T01:29:37.153Z,20.17
2018-08-19T01:32:10.946Z,21.50
2018-08-19T01:34:39.112Z,20.63
2018-08-19T01:37:07.092Z,22.27
2018-08-19T01:39:36.382Z,19.03
2018-08-19T01:42:05.585Z,21.13
2018-08-19T01:44:33.557Z,21.53
2018-08-19T01:47:01.463Z,26.03
2018-08-19T01:49:29.365Z,22.53
2018-08-19T01:51:57.252Z,20.03
2018-08-19T01:54:25.189Z,21.03
2018-08-19T01:56:57.350Z,26.00
2018-08-19T01:59:26.361Z,24.27
2018-08-19T02:01:56.805Z,22.47
2018-08-19T02:04:24.738Z,19.75
2018-08-19T02:06:52.948Z,25.17
2018-08-19T02:09:21.203Z,22.00
2018-08-19T02:11:55.320Z,23.77
2018-08-19T02:14:23.750Z,24.30
2018-08-19T02:16:52.503Z,20.13
2018-08-19T02:19:20.526Z,24.80
2018-08-19T02:24:18.003Z,23.60
2018-08-19T02:26:46.045Z,22.85
2018-08-19T02:29:25.080Z,20.50
2018-08-19T02:31:56.834Z,25.07
2018-08-19T02:34:30.121Z,20.93
2018-08-19T02:37:00.965Z,21.27
2018-08-19T02:39:28.868Z,22.07
2018-08-19T02:41:57.023Z,18.47
2018-08-19T02:44:25.262Z,21.93
2018-08-19T02:46:53.147Z,19.50
2018-08-19T02:49:21.062Z,22.80
2018-08-19T02:51:49.364Z,20.10
2018-08-19T02:54:17.714Z,24.87
2018-08-19T02:56:45.571Z,24.77
2018-08-19T02:59:13.733Z,24.37
2018-08-19T03:01:41.668Z,23.70
2018-08-19T03:04:09.581Z,22.10
2018-08-19T03:06:37.493Z,19.13
2018-08-19T03:09:06.451Z,20.20
2018-08-19T03:14:01.562Z,21.10
2018-08-19T03:18:56.661Z,19.70
2018-08-19T03:21:24.540Z,19.07
2018-08-19T03:23:53.695Z,22.90
2018-08-19T03:26:21.663Z,18.83
2018-08-19T03:28:49.857Z,23.35
2018-08-19T03:31:17.807Z,21.57
2018-08-19T03:36:18.475Z,19.85
2018-08-19T03:38:46.381Z,20.43
2018-08-19T03:41:14.258Z,22.60
2018-08-19T03:43:42.678Z,22.85
2018-08-19T03:46:17.840Z,23.83
2018-08-19T03:48:46.121Z,20.43
2018-08-19T03:51:14.413Z,19.80
2018-08-19T03:56:25.946Z,20.70
2018-08-19T03:58:57.963Z,20.23
2018-08-19T04:01:31.521Z,25.77
2018-08-19T04:03:59.464Z,20.50
2018-08-19T04:06:27.432Z,21.80
2018-08-19T04:08:55.442Z,21.40
2018-08-19T04:11:23.338Z,19.10
2018-08-19T04:13:51.278Z,21.73
2018-08-19T04:16:19.413Z,22.10
2018-08-19T04:18:47.497Z,21.97
2018-08-19T04:21:16.541Z,20.95
2018-08-19T04:26:13.644Z,16.75
2018-08-19T04:28:42.773Z,18.83
2018-08-19T04:31:16.303Z,18.00
2018-08-19T04:33:46.283Z,18.60
2018-08-19T04:36:15.485Z,17.45
2018-08-19T04:38:43.448Z,19.80
2018-08-19T04:43:39.231Z,17.40
2018-08-19T04:46:07.264Z,17.10
2018-08-19T04:48:35.349Z,18.35
2018-08-19T04:51:03.401Z,17.40
2018-08-19T04:53:31.429Z,17.20
2018-08-19T04:55:59.334Z,21.07
2018-08-19T04:58:28.125Z,16.20
2018-08-19T05:00:56.105Z,15.70
2018-08-19T05:03:24.010Z,15.50
2018-08-19T05:05:51.868Z,18.00
2018-08-19T05:08:19.864Z,17.40
2018-08-19T05:10:47.665Z,14.47
2018-08-19T05:13:15.616Z,20.70
2018-08-19T05:15:43.758Z,17.50
2018-08-19T05:18:11.906Z,15.20
2018-08-19T05:23:07.649Z,18.55
2018-08-19T05:25:45.176Z,16.40
2018-08-19T05:28:15.955Z,16.70
2018-08-19T05:30:43.978Z,12.75
2018-08-19T05:33:11.844Z,14.73
2018-08-19T05:35:39.739Z,15.10
2018-08-19T05:38:07.670Z,17.30
2018-08-19T05:40:37.749Z,15.40
2018-08-19T05:43:05.752Z,14.90
2018-08-19T06:00:23.668Z,16.70
2018-08-19T06:02:52.072Z,13.03
2018-08-19T06:05:20.014Z,17.47
2018-08-19T06:25:06.303Z,12.40
2018-08-19T06:27:39.611Z,18.00
2018-08-19T06:32:34.706Z,16.30
2018-08-19T06:42:24.143Z,13.10
2018-08-19T06:52:19.299Z,15.50
2018-08-19T06:57:14.361Z,13.70
2018-08-19T06:59:42.273Z,15.00
2018-08-19T07:04:51.672Z,13.00
2018-08-19T07:07:20.305Z,12.10
2018-08-19T13:20:05.031Z,3.43
2018-08-19T13:56:53.620Z,6.30
2018-08-19T14:11:39.605Z,4.60
2018-08-19T14:19:02.638Z,5.30
2018-08-19T17:13:30.324Z,8.55
2018-08-19T18:22:09.372Z,10.20
2018-08-19T18:24:37.278Z,13.57
2018-08-19T18:27:05.218Z,9.35
2018-08-19T18:32:00.168Z,11.50
2018-08-19T18:34:28.004Z,9.30
2018-08-19T19:26:37.492Z,14.90
2018-08-19T19:29:08.893Z,11.60
2018-08-19T19:31:36.813Z,11.33
2018-08-19T19:34:11.908Z,13.67
2018-08-19T19:36:40.865Z,12.00
2018-08-19T19:39:08.713Z,17.97
2018-08-19T19:41:36.613Z,17.00
2018-08-19T19:44:14.489Z,13.00
2018-08-19T19:46:42.398Z,15.67
2018-08-19T19:49:11.218Z,16.60
2018-08-19T19:51:39.117Z,18.10
2018-08-19T19:54:06.999Z,17.40
2018-08-19T19:56:34.929Z,14.13
2018-08-19T19:59:02.899Z,28.03
2018-08-19T20:01:30.814Z,34.83
2018-08-19T20:03:59.674Z,21.60
2018-08-19T20:06:27.578Z,19.37
2018-08-19T20:08:58.005Z,17.93
2018-08-19T20:11:27.077Z,19.30
2018-08-19T20:13:57.289Z,20.33
2018-08-19T20:16:25.293Z,21.40
2018-08-19T20:18:53.197Z,22.57
2018-08-19T20:21:27.225Z,26.00
2018-08-19T20:23:56.338Z,18.10
2018-08-19T20:26:24.744Z,20.00
2018-08-19T20:28:54.232Z,20.13
2018-08-19T20:31:22.254Z,20.67
2018-08-19T20:33:50.190Z,33.90
2018-08-19T20:36:18.162Z,25.93
2018-08-19T20:38:46.137Z,23.23
2018-08-19T20:41:14.120Z,20.13
2018-08-19T20:43:42.059Z,23.30
2018-08-19T20:46:10.009Z,29.57
2018-08-19T20:48:38.916Z,26.33
2018-08-19T20:51:07.772Z,33.27
2018-08-19T20:53:35.645Z,20.40
2018-08-19T20:56:03.573Z,31.50
2018-08-19T20:58:31.494Z,25.53
2018-08-19T21:01:00.375Z,25.63
2018-08-19T21:03:28.473Z,21.70
2018-08-19T21:05:56.406Z,22.03
2018-08-19T21:08:24.264Z,22.93
2018-08-19T21:10:52.149Z,20.53
2018-08-19T21:13:22.901Z,18.87
2018-08-19T21:15:53.527Z,20.20
2018-08-19T21:18:21.405Z,22.67
2018-08-19T21:20:49.447Z,24.77
2018-08-19T21:23:17.333Z,24.67
2018-08-19T21:25:51.074Z,19.80
2018-08-19T21:28:19.551Z,25.90
2018-08-19T21:30:47.508Z,19.80
2018-08-19T21:33:15.440Z,22.03
2018-08-19T21:35:48.953Z,20.20
2018-08-19T21:38:16.878Z,21.13
2018-08-19T21:40:44.817Z,20.50
2018-08-19T21:43:12.733Z,19.47
2018-08-19T21:45:40.721Z,23.07
2018-08-19T21:48:08.683Z,19.37
2018-08-19T21:50:36.560Z,23.10
2018-08-19T21:53:06.013Z,22.17
2018-08-19T21:55:35.242Z,18.33
2018-08-19T21:58:03.516Z,20.43
2018-08-19T22:00:33.469Z,20.23
2018-08-19T22:03:06.965Z,20.57
2018-08-19T22:05:35.896Z,26.30
2018-08-19T22:08:04.689Z,21.47
2018-08-19T22:10:33.488Z,25.27
2018-08-19T22:13:01.385Z,23.70
2018-08-19T22:15:34.889Z,22.87
2018-08-19T22:18:02.802Z,22.33
2018-08-19T22:20:30.750Z,23.10
2018-08-19T22:22:58.741Z,22.93
2018-08-19T22:25:26.722Z,25.60
2018-08-19T22:27:54.592Z,23.33
2018-08-19T22:30:24.634Z,25.37
2018-08-19T22:32:52.590Z,25.13
2018-08-19T22:35:20.539Z,30.23
2018-08-19T22:37:48.481Z,22.20
2018-08-19T22:40:17.472Z,25.10
2018-08-19T22:42:45.287Z,26.43
2018-08-19T22:45:13.191Z,25.17
2018-08-19T22:47:41.112Z,24.23
2018-08-19T22:50:09.029Z,27.10
2018-08-19T22:52:36.947Z,25.43
2018-08-19T22:57:31.993Z,27.10
2018-08-19T23:02:27.114Z,24.00
2018-08-19T23:57:19.915Z,29.50
